createdAt,value
2022-09-05T00:02:20.921Z,12.10
2022-09-05T00:05:30.724Z,12.10
2022-09-05T00:08:34.440Z,12.10
2022-09-05T00:11:42.027Z,12.10
2022-09-05T00:13:54.249Z,12.10
2022-09-05T00:16:34.635Z,12.20
2022-09-05T00:24:17.710Z,12.20
2022-09-05T00:24:34.978Z,12.20
2022-09-05T00:25:14.286Z,12.20
2022-09-05T00:27:38.054Z,12.20
2022-09-05T00:31:51.938Z,12.30
2022-09-05T00:33:17.516Z,12.30
2022-09-05T00:36:12.470Z,12.30
2022-09-05T00:38:46.921Z,12.30
2022-09-05T00:41:21.262Z,12.30
2022-09-05T00:43:55.503Z,12.30
2022-09-05T00:46:36.747Z,12.40
2022-09-05T00:49:20.229Z,12.40
2022-09-05T00:52:03.847Z,12.40
2022-09-05T00:55:08.944Z,12.40
2022-09-05T00:57:57.758Z,12.40
2022-09-05T01:00:43.830Z,12.40
2022-09-05T01:03:33.786Z,12.50
2022-09-05T01:06:20.890Z,12.50
2022-09-05T01:09:14.008Z,12.60
2022-09-05T01:12:08.194Z,12.60
2022-09-05T01:15:00.006Z,12.60
2022-09-05T01:17:38.214Z,12.60
2022-09-05T01:20:42.614Z,12.70
2022-09-05T01:23:39.885Z,12.90
2022-09-05T01:26:26.525Z,13.00
2022-09-05T01:29:20.132Z,13.10
2022-09-05T01:32:05.925Z,13.20
2022-09-05T01:34:59.521Z,13.30
2022-09-05T01:37:46.782Z,13.50
2022-09-05T01:40:27.282Z,13.60
2022-09-05T01:43:18.263Z,13.70
2022-09-05T01:45:55.967Z,13.80
2022-09-05T01:48:47.567Z,13.90
2022-09-05T01:51:46.042Z,13.90
2022-09-05T01:54:30.226Z,14.00
2022-09-05T01:57:21.914Z,14.10
2022-09-05T02:00:15.218Z,14.10
2022-09-05T02:03:02.729Z,14.20
2022-09-05T02:05:49.236Z,14.20
2022-09-05T02:08:17.122Z,14.20
2022-09-05T02:11:12.611Z,14.20
2022-09-05T02:14:02.210Z,14.20
2022-09-05T02:16:43.142Z,14.20
2022-09-05T02:19:18.144Z,14.30
2022-09-05T02:21:59.042Z,14.30
2022-09-05T02:24:52.173Z,14.30
2022-09-05T02:28:03.918Z,14.30
2022-09-05T02:30:13.008Z,14.40
2022-09-05T02:32:56.951Z,14.40
2022-09-05T02:35:48.868Z,14.40
2022-09-05T02:42:00.167Z,14.40
2022-09-05T02:45:17.571Z,14.40
2022-09-05T02:45:24.366Z,14.40
2022-09-05T02:46:41.174Z,14.40
2022-09-05T02:52:29.230Z,14.40
2022-09-05T02:57:30.047Z,14.40
2022-09-05T02:57:38.989Z,14.40
2022-09-05T02:58:06.097Z,14.50
2022-09-05T03:00:32.844Z,14.50
2022-09-05T03:03:27.132Z,14.50
2022-09-05T03:06:30.013Z,14.60
2022-09-05T03:08:54.402Z,14.60
2022-09-05T03:11:49.843Z,14.60
2022-09-05T03:14:28.988Z,14.60
2022-09-05T03:17:33.402Z,14.70
2022-09-05T03:20:33.601Z,14.70
2022-09-05T03:23:33.386Z,14.70
2022-09-05T03:26:33.109Z,14.80
2022-09-05T03:29:17.115Z,14.80
2022-09-05T03:32:13.817Z,14.80
2022-09-05T03:35:08.795Z,14.90
2022-09-05T03:37:49.409Z,15.00
2022-09-05T03:40:45.607Z,15.10
2022-09-05T03:43:32.874Z,15.20
2022-09-05T03:46:24.457Z,15.20
2022-09-05T03:50:35.848Z,15.30
2022-09-05T03:57:06.680Z,15.40
2022-09-05T03:57:16.673Z,15.50
2022-09-05T03:57:57.112Z,15.50
2022-09-05T04:00:39.147Z,15.50
2022-09-05T04:08:08.180Z,15.60
2022-09-05T04:08:17.041Z,15.60
2022-09-05T04:08:55.438Z,15.60
2022-09-05T04:11:42.207Z,15.60
2022-09-05T04:14:19.843Z,15.60
2022-09-05T04:17:09.876Z,15.60
2022-09-05T04:19:49.056Z,15.60
2022-09-05T04:22:29.854Z,15.60
2022-09-05T04:25:19.920Z,15.70
2022-09-05T04:27:55.447Z,15.70
2022-09-05T04:30:38.762Z,15.70
2022-09-05T04:33:09.283Z,15.70
2022-09-05T04:36:17.618Z,15.70
2022-09-05T04:38:46.474Z,15.70
2022-09-05T04:41:39.063Z,15.70
2022-09-05T04:44:06.326Z,15.80
2022-09-05T04:46:47.389Z,15.80
2022-09-05T04:49:18.203Z,15.80
2022-09-05T04:52:05.976Z,15.80
2022-09-05T04:55:08.965Z,15.80
2022-09-05T04:58:02.992Z,15.80
2022-09-05T05:06:04.551Z,15.70
2022-09-05T05:06:09.429Z,15.70
2022-09-05T05:06:38.120Z,15.80
2022-09-05T05:09:03.553Z,15.80
2022-09-05T05:15:32.092Z,15.80
2022-09-05T05:18:07.635Z,15.80
2022-09-05T05:18:13.564Z,15.80
2022-09-05T05:20:42.149Z,15.80
2022-09-05T05:22:36.487Z,15.80
2022-09-05T05:25:11.283Z,15.80
2022-09-05T05:27:52.110Z,15.80
2022-09-05T05:30:31.142Z,15.80
2022-09-05T05:33:06.163Z,15.80
2022-09-05T05:35:48.215Z,15.80
2022-09-05T05:38:14.964Z,15.80
2022-09-05T05:40:52.252Z,15.80
2022-09-05T05:43:32.831Z,15.80
2022-09-05T05:46:08.290Z,15.80
2022-09-05T05:48:44.227Z,15.80
2022-09-05T05:52:00.939Z,15.80
2022-09-05T05:54:31.360Z,15.80
2022-09-05T05:57:22.413Z,15.80
2022-09-05T06:00:14.748Z,15.80
2022-09-05T06:03:26.522Z,15.80
2022-09-05T06:05:50.686Z,15.80
2022-09-05T06:14:02.511Z,15.80
2022-09-05T06:15:00.482Z,15.80
2022-09-05T06:15:02.641Z,15.80
2022-09-05T06:17:23.545Z,15.70
2022-09-05T06:21:38.923Z,15.70
2022-09-05T06:23:36.582Z,15.80
2022-09-05T06:26:26.516Z,15.80
2022-09-05T06:29:23.024Z,15.70
2022-09-05T06:32:19.381Z,15.80
2022-09-05T06:35:09.503Z,15.70
2022-09-05T06:38:02.307Z,15.70
2022-09-05T06:40:48.886Z,15.70
2022-09-05T06:43:35.200Z,15.70
2022-09-05T06:47:23.258Z,15.80
2022-09-05T06:49:30.303Z,15.80
2022-09-05T06:52:28.774Z,15.80
2022-09-05T06:55:08.050Z,15.80
2022-09-05T06:57:57.475Z,15.80
2022-09-05T07:00:57.301Z,15.80
2022-09-05T07:03:32.976Z,15.80
2022-09-05T07:06:44.296Z,15.80
2022-09-05T07:09:22.703Z,15.80
2022-09-05T07:12:01.440Z,15.80
2022-09-05T07:14:36.256Z,15.80
2022-09-05T07:17:24.087Z,15.80
2022-09-05T07:20:02.132Z,15.80
2022-09-05T07:23:47.716Z,15.80
2022-09-05T07:25:37.638Z,15.80
2022-09-05T07:28:26.116Z,15.80
2022-09-05T07:30:56.230Z,15.80
2022-09-05T07:33:31.432Z,15.90
2022-09-05T07:36:21.532Z,15.90
2022-09-05T07:39:12.258Z,15.90
2022-09-05T07:41:32.638Z,15.90
2022-09-05T07:44:17.491Z,15.90
2022-09-05T07:46:53.436Z,16.00
2022-09-05T07:49:31.195Z,15.90
2022-09-05T07:56:47.726Z,16.00
2022-09-05T07:56:59.385Z,15.90
2022-09-05T07:57:51.009Z,15.90
2022-09-05T08:00:01.240Z,16.00
2022-09-05T08:02:34.164Z,16.00
2022-09-05T08:05:11.993Z,16.00
2022-09-05T08:07:51.578Z,16.00
2022-09-05T08:10:31.080Z,16.00
2022-09-05T08:13:24.261Z,16.00
2022-09-05T08:16:13.087Z,16.00
2022-09-05T08:18:55.939Z,16.00
2022-09-05T08:21:36.695Z,16.00
2022-09-05T08:24:13.774Z,16.00
2022-09-05T08:26:49.299Z,16.00
2022-09-05T08:29:40.681Z,16.00
2022-09-05T08:32:20.040Z,16.00
2022-09-05T08:34:58.819Z,16.00
2022-09-05T08:37:33.265Z,16.00
2022-09-05T08:40:10.675Z,15.90
2022-09-05T08:45:35.165Z,15.90
2022-09-05T08:46:42.698Z,15.90
2022-09-05T08:48:25.631Z,15.90
2022-09-05T08:51:18.706Z,15.90
2022-09-05T08:54:14.989Z,15.90
2022-09-05T08:56:59.086Z,15.90
2022-09-05T09:00:20.562Z,15.90
2022-09-05T09:02:47.003Z,15.90
2022-09-05T09:05:19.008Z,15.90
2022-09-05T09:08:00.795Z,15.90
2022-09-05T09:10:48.045Z,15.90
2022-09-05T09:13:41.320Z,15.90
2022-09-05T09:16:25.581Z,15.90
2022-09-05T09:19:03.043Z,15.90
2022-09-05T09:21:41.162Z,15.90
2022-09-05T09:24:16.119Z,15.80
2022-09-05T09:26:57.312Z,15.80
2022-09-05T09:29:31.260Z,15.70
2022-09-05T09:32:16.390Z,15.70
2022-09-05T09:35:08.031Z,15.50
2022-09-05T09:37:49.533Z,15.30
2022-09-05T09:40:34.652Z,15.20
2022-09-05T09:43:16.381Z,15.10
2022-09-05T09:46:21.428Z,15.00
2022-09-05T09:49:22.969Z,14.80
2022-09-05T09:52:20.893Z,14.70
2022-09-05T09:55:17.514Z,14.70
2022-09-05T09:58:05.799Z,14.60
2022-09-05T10:00:43.479Z,14.60
2022-09-05T10:10:33.715Z,14.60
2022-09-05T10:10:45.060Z,14.50
2022-09-05T10:10:46.658Z,14.50
2022-09-05T10:12:34.602Z,14.50
2022-09-05T10:15:31.130Z,14.40
2022-09-05T10:18:12.634Z,14.40
2022-09-05T10:21:16.094Z,14.40
2022-09-05T10:23:53.416Z,14.40
2022-09-05T10:26:57.423Z,14.30
2022-09-05T10:29:47.066Z,14.30
2022-09-05T10:35:11.306Z,14.20
2022-09-05T10:35:22.290Z,14.20
2022-09-05T10:37:51.526Z,14.10
2022-09-05T10:40:27.391Z,14.10
2022-09-05T10:43:15.353Z,14.00
2022-09-05T10:46:06.015Z,14.00
2022-09-05T10:48:51.085Z,13.90
2022-09-05T10:51:31.803Z,13.80
2022-09-05T10:54:22.903Z,13.80
2022-09-05T10:57:13.612Z,13.70
2022-09-05T11:02:20.427Z,13.70
2022-09-05T11:02:46.760Z,13.60
2022-09-05T11:05:31.139Z,13.60
2022-09-05T11:08:15.004Z,13.50
2022-09-05T11:10:59.276Z,13.50
2022-09-05T11:13:49.676Z,13.50
2022-09-05T11:16:34.201Z,13.40
2022-09-05T11:19:28.393Z,13.40
2022-09-05T11:22:23.088Z,13.40
2022-09-05T11:24:47.359Z,13.30
2022-09-05T11:27:45.463Z,13.30
2022-09-05T11:30:30.298Z,13.20
2022-09-05T11:39:19.261Z,13.10
2022-09-05T11:40:02.214Z,13.00
2022-09-05T11:40:08.640Z,13.10
2022-09-05T11:42:18.629Z,12.90
2022-09-05T11:45:17.610Z,12.90
2022-09-05T11:48:01.106Z,12.90
2022-09-05T11:50:38.547Z,12.90
2022-09-05T11:53:43.369Z,12.80
2022-09-05T11:56:22.742Z,12.80
2022-09-05T11:59:16.330Z,12.80
2022-09-05T12:02:23.863Z,12.70
2022-09-05T12:05:49.773Z,12.70
2022-09-05T12:08:04.363Z,12.70
2022-09-05T12:10:47.116Z,12.60
2022-09-05T12:13:21.733Z,12.60
2022-09-05T12:16:08.109Z,12.60
2022-09-05T12:18:43.489Z,12.60
2022-09-05T12:21:45.604Z,12.50
2022-09-05T12:25:24.018Z,12.50
2022-09-05T12:27:42.036Z,12.50
2022-09-05T12:34:50.972Z,12.40
2022-09-05T12:36:08.896Z,12.40
2022-09-05T12:40:53.317Z,12.30
2022-09-05T12:41:37.580Z,12.30
2022-09-05T12:42:08.554Z,12.40
2022-09-05T12:44:00.698Z,12.30
2022-09-05T12:45:45.171Z,12.30
2022-09-05T12:48:41.590Z,12.30
2022-09-05T12:51:46.847Z,12.20
2022-09-05T12:53:57.997Z,12.20
2022-09-05T13:01:01.545Z,12.10
2022-09-05T13:03:03.376Z,12.10
2022-09-05T13:03:05.635Z,12.10
2022-09-05T13:04:59.721Z,12.10
2022-09-05T13:07:26.215Z,12.00
2022-09-05T13:12:13.657Z,12.00
2022-09-05T13:14:53.766Z,11.90
2022-09-05T13:15:24.757Z,11.90
2022-09-05T13:18:12.297Z,11.90
2022-09-05T13:20:57.135Z,11.80
2022-09-05T13:23:38.437Z,11.80
2022-09-05T13:26:22.320Z,11.80
2022-09-05T13:29:05.993Z,11.70
2022-09-05T13:37:54.275Z,11.70
2022-09-05T13:38:10.407Z,11.60
2022-09-05T13:38:11.971Z,11.70
2022-09-05T13:40:05.611Z,11.60
2022-09-05T13:42:43.181Z,11.60
2022-09-05T13:45:20.566Z,11.50
2022-09-05T13:48:12.100Z,11.50
2022-09-05T13:50:50.907Z,11.50
2022-09-05T13:53:31.101Z,11.50
2022-09-05T13:56:31.514Z,11.40
2022-09-05T13:59:20.273Z,11.40
2022-09-05T14:02:25.735Z,11.30
2022-09-05T14:05:11.265Z,11.30
2022-09-05T14:07:59.102Z,11.30
2022-09-05T14:10:36.021Z,11.20
2022-09-05T14:13:14.316Z,11.10
2022-09-05T14:16:04.303Z,11.10
2022-09-05T14:18:48.542Z,11.10
2022-09-05T14:21:20.510Z,11.10
2022-09-05T14:23:58.584Z,11.10
2022-09-05T14:26:48.706Z,11.00
2022-09-05T14:29:36.205Z,11.00
2022-09-05T14:37:39.113Z,11.00
2022-09-05T14:37:42.039Z,10.90
2022-09-05T14:38:14.475Z,10.90
2022-09-05T14:40:57.366Z,10.80
2022-09-05T14:43:48.161Z,10.70
2022-09-05T14:46:41.008Z,10.70
2022-09-05T14:49:26.145Z,10.50
2022-09-05T14:51:59.481Z,10.50
2022-09-05T15:02:38.437Z,10.40
2022-09-05T15:02:41.038Z,10.30
2022-09-05T15:03:00.627Z,10.30
2022-09-05T15:05:19.189Z,10.30
2022-09-05T15:07:58.769Z,10.30
2022-09-05T15:12:21.742Z,10.30
2022-09-05T15:13:19.472Z,10.30
2022-09-05T15:16:03.268Z,10.20
2022-09-05T15:18:42.432Z,10.20
2022-09-05T15:21:38.396Z,10.20
2022-09-05T15:24:25.702Z,10.20
2022-09-05T15:27:04.201Z,10.20
2022-09-05T15:29:38.793Z,10.20
2022-09-05T15:32:26.085Z,10.20
2022-09-05T15:35:00.987Z,10.20
2022-09-05T15:37:42.401Z,10.20
2022-09-05T15:40:22.341Z,10.10
2022-09-05T15:42:59.343Z,10.10
2022-09-05T15:45:34.882Z,10.10
2022-09-05T15:48:18.877Z,10.10
2022-09-05T15:50:56.947Z,10.10
2022-09-05T15:53:40.074Z,10.20
2022-09-05T15:56:17.878Z,10.20
2022-09-05T15:58:59.705Z,10.20
2022-09-05T16:02:00.521Z,10.20
2022-09-05T16:10:27.441Z,10.10
2022-09-05T16:10:40.811Z,10.00
2022-09-05T16:10:41.776Z,10.10
2022-09-05T16:12:22.803Z,10.00
2022-09-05T16:15:31.402Z,10.00
2022-09-05T16:23:14.854Z,10.00
2022-09-05T16:23:24.443Z,10.00
2022-09-05T16:23:25.121Z,9.90
2022-09-05T16:25:42.501Z,9.90
2022-09-05T16:28:20.230Z,9.80
2022-09-05T16:30:55.233Z,9.70
2022-09-05T16:33:31.131Z,9.70
2022-09-05T16:36:10.926Z,9.70
2022-09-05T16:38:58.746Z,9.70
2022-09-05T16:41:48.804Z,9.70
2022-09-05T16:44:40.417Z,9.70
2022-09-05T16:47:25.690Z,9.60
2022-09-05T16:50:06.406Z,9.60
2022-09-05T16:52:56.112Z,9.60
2022-09-05T16:55:33.764Z,9.60
2022-09-05T16:58:17.267Z,9.60
2022-09-05T17:01:07.331Z,9.60
2022-09-05T17:03:42.183Z,9.60
2022-09-05T17:06:28.424Z,9.60
2022-09-05T17:09:12.441Z,9.70
2022-09-05T17:11:51.010Z,9.70
2022-09-05T17:14:17.226Z,9.80
2022-09-05T17:17:00.664Z,9.80
2022-09-05T17:19:41.977Z,9.90
2022-09-05T17:24:38.688Z,9.90
2022-09-05T17:29:16.454Z,10.00
2022-09-05T17:29:32.368Z,10.00
2022-09-05T17:32:46.918Z,10.00
2022-09-05T17:35:27.149Z,10.10
2022-09-05T17:38:18.660Z,10.10
2022-09-05T17:40:54.009Z,10.10
2022-09-05T17:43:34.921Z,10.10
2022-09-05T17:46:33.283Z,10.00
2022-09-05T17:49:19.642Z,10.10
2022-09-05T17:51:51.197Z,10.00
2022-09-05T17:54:22.026Z,10.00
2022-09-05T17:56:55.256Z,10.00
2022-09-05T17:59:30.702Z,10.00
2022-09-05T18:02:11.513Z,9.90
2022-09-05T18:04:55.152Z,9.90
2022-09-05T18:07:33.018Z,9.90
2022-09-05T18:10:15.658Z,9.90
2022-09-05T18:13:13.902Z,9.80
2022-09-05T18:15:33.247Z,9.80
2022-09-05T18:18:39.860Z,9.80
2022-09-05T18:20:50.926Z,9.80
2022-09-05T18:23:39.622Z,9.80
2022-09-05T18:26:04.596Z,9.70
2022-09-05T18:28:44.913Z,9.70
2022-09-05T18:31:45.202Z,9.70
2022-09-05T18:34:31.894Z,9.70
2022-09-05T18:37:00.083Z,9.70
2022-09-05T18:39:36.934Z,9.70
2022-09-05T18:42:33.634Z,9.60
2022-09-05T18:44:55.323Z,9.60
2022-09-05T18:47:38.392Z,9.60
2022-09-05T18:50:25.878Z,9.60
2022-09-05T18:53:10.507Z,9.60
2022-09-05T18:56:09.736Z,9.60
2022-09-05T18:58:14.823Z,9.60
2022-09-05T19:00:51.261Z,9.60
2022-09-05T19:03:26.243Z,9.70
2022-09-05T19:06:34.877Z,9.70
2022-09-05T19:08:37.565Z,9.70
2022-09-05T19:11:27.864Z,9.70
2022-09-05T19:13:48.374Z,9.70
2022-09-05T19:16:43.764Z,9.70
2022-09-05T19:19:16.395Z,9.70
2022-09-05T19:22:39.299Z,9.70
2022-09-05T19:24:43.201Z,9.70
2022-09-05T19:28:37.083Z,9.70
2022-09-05T19:36:53.899Z,9.70
2022-09-05T19:36:57.695Z,9.70
2022-09-05T19:37:02.251Z,9.80
2022-09-05T19:37:44.652Z,9.80
2022-09-05T19:47:25.531Z,9.80
2022-09-05T19:47:33.999Z,9.90
2022-09-05T19:47:57.785Z,9.90
2022-09-05T19:50:59.333Z,9.90
2022-09-05T19:53:34.343Z,9.90
2022-09-05T19:56:07.621Z,9.90
2022-09-05T19:58:40.409Z,9.90
2022-09-05T20:01:18.042Z,9.90
2022-09-05T20:03:55.745Z,10.00
2022-09-05T20:06:32.698Z,10.00
2022-09-05T20:09:27.528Z,10.00
2022-09-05T20:12:01.971Z,10.00
2022-09-05T20:14:37.496Z,10.00
2022-09-05T20:17:27.956Z,10.00
2022-09-05T20:20:10.072Z,10.00
2022-09-05T20:22:47.347Z,10.00
2022-09-05T20:25:36.037Z,10.00
2022-09-05T20:27:56.880Z,10.00
2022-09-05T20:30:37.721Z,10.00
2022-09-05T20:33:12.534Z,10.00
2022-09-05T20:42:14.101Z,10.00
2022-09-05T20:43:16.584Z,10.00
2022-09-05T20:43:31.022Z,10.10
2022-09-05T20:43:55.107Z,10.10
2022-09-05T20:48:34.519Z,10.10
2022-09-05T20:54:16.038Z,10.10
2022-09-05T20:54:26.821Z,10.10
2022-09-05T20:54:41.266Z,10.10
2022-09-05T20:57:02.248Z,10.10
2022-09-05T20:59:43.382Z,10.20
2022-09-05T21:02:33.642Z,10.20
2022-09-05T21:05:20.692Z,10.20
2022-09-05T21:07:49.594Z,10.20
2022-09-05T21:10:28.467Z,10.20
2022-09-05T21:13:03.661Z,10.20
2022-09-05T21:15:53.127Z,10.20
2022-09-05T21:18:14.819Z,10.30
2022-09-05T21:20:58.368Z,10.30
2022-09-05T21:23:38.885Z,10.30
2022-09-05T21:26:14.106Z,10.30
2022-09-05T21:28:49.189Z,10.30
2022-09-05T21:31:23.012Z,10.30
2022-09-05T21:33:57.551Z,10.30
2022-09-05T21:36:31.434Z,10.40
2022-09-05T21:39:05.650Z,10.40
2022-09-05T21:41:38.649Z,10.50
2022-09-05T21:47:33.979Z,10.50
2022-09-05T21:47:38.026Z,10.50
2022-09-05T21:49:23.176Z,10.50
2022-09-05T21:51:56.931Z,10.50
2022-09-05T21:59:21.572Z,10.50
2022-09-05T21:59:25.801Z,10.50
2022-09-05T21:59:47.017Z,10.60
2022-09-05T22:02:18.350Z,10.60
2022-09-05T22:04:51.633Z,10.60
2022-09-05T22:07:32.495Z,10.50
2022-09-05T22:09:59.835Z,10.60
2022-09-05T22:12:39.733Z,10.60
2022-09-05T22:15:27.937Z,10.70
2022-09-05T22:17:50.097Z,10.80
2022-09-05T22:20:28.920Z,10.80
2022-09-05T22:23:02.836Z,10.90
2022-09-05T22:25:36.707Z,10.90
2022-09-05T22:28:12.424Z,10.90
2022-09-05T22:30:45.579Z,10.90
2022-09-05T22:33:18.540Z,10.90
2022-09-05T22:35:51.379Z,10.90
2022-09-05T22:38:24.120Z,11.00
2022-09-05T22:40:59.311Z,11.00
2022-09-05T22:43:33.053Z,11.10
2022-09-05T22:46:05.853Z,11.20
2022-09-05T22:48:40.260Z,11.30
2022-09-05T22:51:13.223Z,11.30
2022-09-05T22:53:46.163Z,11.40
2022-09-05T22:56:20.478Z,11.40
2022-09-05T22:58:53.441Z,11.40
2022-09-05T23:01:26.571Z,11.40
2022-09-05T23:03:59.629Z,11.30
2022-09-05T23:06:32.521Z,11.30
2022-09-05T23:09:05.642Z,11.30
2022-09-05T23:11:38.749Z,11.40
2022-09-05T23:14:15.838Z,11.40
2022-09-05T23:16:51.353Z,11.40
2022-09-05T23:19:24.220Z,11.40
2022-09-05T23:21:57.155Z,11.40
2022-09-05T23:24:30.078Z,11.50
2022-09-05T23:27:05.402Z,11.50
2022-09-05T23:29:38.276Z,11.60
2022-09-05T23:32:11.026Z,11.60
2022-09-05T23:34:43.880Z,11.60
2022-09-05T23:37:16.699Z,11.60
2022-09-05T23:39:49.654Z,11.60
2022-09-05T23:42:22.620Z,11.70
2022-09-05T23:44:55.445Z,11.70
2022-09-05T23:47:29.756Z,11.70
2022-09-05T23:50:02.819Z,11.70
2022-09-05T23:52:37.186Z,11.60
2022-09-05T23:55:10.719Z,11.60
2022-09-05T23:57:43.949Z,11.60
